Woodland Hills, CA (91367)

5:28 PM PDT on August 26, 2016 (GMT -0700)
Fallbrook Mall Area | | Change Station

Elev 832 ft 34.18 °N, 118.62 °W | Updated 4 seconds ago

Clear
Clear
80.6 °F
Feels Like 80 °F
N
2.7
Wind Variable Wind from WSW
Gusts 2.7 mph

Today
High -- | Low -- °F
--% Chance of Precip.
Yesterday
High -- | Low -- °F
Precip. -- in
Pressure 29.88 in
Visibility 10.0 miles
Clouds Clear
Heat Index 80 °F
Dew Point 53 °F
Humidity 38%
Rainfall 0.00 in
Snow Depth Not available.
6:24 AM 7:27 PM
Waning Crescent, 30% visible
METAR KVNY 262351Z 14009KT 10SM CLR 26/13 A2991 RMK AO2 SLP119 T02560133 10278 20211 56014
Pressure 29.88 in
Visibility 10.0 miles
Clouds Clear
Heat Index 80 °F
Dew Point 53 °F
Humidity 38%
Rainfall 0.00 in
Snow Depth Not available.
6:24 AM 7:27 PM
Waning Crescent, 30% visible
METAR KVNY 262351Z 14009KT 10SM CLR 26/13 A2991 RMK AO2 SLP119 T02560133 10278 20211 56014

10-Day Weather Forecast

Almanac

Astronomy

Aug. 26, 2016 Rise Set
Actual Time
Civil Twilight
Nautical Twilight
Astronomical Twilight
Moon
Length of Visible Light
Length of Day
Tomorrow will be .
, % of the Moon is Illuminated

Today's Extremes

State Highs State Lows

Community

WunderPhotos

Upload Photos

1,935,257 photos uploaded!

WunderBlog® & News

Nearby

Air Quality

  Air Quality AQ Index Pollutant
Not available.

Snow Depth

Station Depth Elevation

Earthquake Activity

City Distance Mag. Time & Date
Minimum magnitude displayed is 2.5.

Coastal Water Temperatures

Place Temperature

Stations

Nearby Weather Stations

Station Location Temp. Windchill Dew Point Humidity Wind Precip. Elev Updated Type
                   

Watches & Warnings

There are currently no watches in effect.